As Victoria — A8SO7 — position and weather

sailwx.info

Track history (hours):
 
Tides and Currents Weather Stations Pressure Air Temp Water Temp Dewpoint Dewpoint Depression Visibility Wind Speed Wind Dir Waves Ship Positions

As Victoria

Last reported at 2017-Mar-27 17:32 UTC. Time now 2017-Mar-30 14:50 UTC.
Position N 34°51' E 129°06'.

Length 190 m; draft 8.1 m.

MMSI: 636091769.

Date/timePositionNaut miles runAvg speedWind from/ knotsBaromVisibWave heightAir tempDewpointWater temp
2017-Mar-27 17:32N 34°51' E 129°06'1111.2
2017-Mar-27 16:31N 35°00' E 129°15'  
2017-Mar-23 15:19N 31°01' E 122°24'1013.5
2017-Mar-23 14:34N 31°02' E 122°13'1110.9
2017-Mar-23 13:34N 31°05' E 122°00'1110.9
2017-Mar-23 12:33N 31°11' E 121°50'1111.2
2017-Mar-23 11:33N 31°20' E 121°41'1110.8
2017-Mar-23 10:33N 31°25' E 121°30'1110.9
2017-Mar-23 09:34N 31°32' E 121°20'1414.2
2017-Mar-23 08:33N 31°42' E 121°08'3411.4
2017-Mar-23 05:33N 32°00' E 120°34'  
2017-Mar-20 10:31N 31°60' E 120°22'3 2.7
2017-Mar-20 09:33N 32°01' E 120°24'1 1.1
2017-Mar-20 08:33N 32°02' E 120°25'5 5.2
2017-Mar-20 07:33N 32°02' E 120°32'28 5.2
2017-Mar-20 02:15N 31°47' E 120°59'3 4.8
2017-Mar-20 01:33N 31°46' E 121°03'8 8.2
2017-Mar-20 00:33N 31°41' E 121°10'1211.6
2017-Mar-19 23:33N 31°33' E 121°20'1111.2
2017-Mar-19 22:33N 31°26' E 121°30'1110.6
2017-Mar-19 21:33N 31°20' E 121°41'1110.7
2017-Mar-19 20:33N 31°16' E 121°52'1111.0
2017-Mar-19 19:33N 31°14' E 122°05'1010.3
2017-Mar-19 18:33N 31°08' E 122°15'10 7.8
2017-Mar-19 17:20N 31°07' E 122°26'11 0.9
2017-Mar-19 05:30N 31°09' E 122°38'2 1.9
2017-Mar-19 04:15N 31°07' E 122°37'5 7.2
2017-Mar-19 03:32N 31°08' E 122°42'1 1.3
2017-Mar-19 02:33N 31°09' E 122°43'0 0.1
2017-Mar-19 01:34N 31°09' E 122°43'0 0.1
2017-Mar-19 00:34N 31°09' E 122°43'0 0.0
2017-Mar-18 23:33N 31°09' E 122°43'0 0.1
2017-Mar-18 22:32N 31°09' E 122°43'0 0.1
2017-Mar-18 21:30N 31°09' E 122°43'  
Track history (hours):
 
Tides and Currents Weather Stations Pressure Air Temp Water Temp Dewpoint Dewpoint Depression Visibility Wind Speed Wind Dir Waves Ship Positions

As Victoria

Last reported at 2017-Mar-27 17:32 UTC. Time now 2017-Mar-30 14:50 UTC.
Position N 34°51' E 129°06'.

Length 190 m; draft 8.1 m.

MMSI: 636091769.

Date/timePositionNaut miles runAvg speedWind from/ knotsBaromVisibWave heightAir tempDewpointWater temp
2017-Mar-27 17:32N 34°51' E 129°06'1111.2
2017-Mar-27 16:31N 35°00' E 129°15'  
2017-Mar-23 15:19N 31°01' E 122°24'1013.5
2017-Mar-23 14:34N 31°02' E 122°13'1110.9
2017-Mar-23 13:34N 31°05' E 122°00'1110.9
2017-Mar-23 12:33N 31°11' E 121°50'1111.2
2017-Mar-23 11:33N 31°20' E 121°41'1110.8
2017-Mar-23 10:33N 31°25' E 121°30'1110.9
2017-Mar-23 09:34N 31°32' E 121°20'1414.2
2017-Mar-23 08:33N 31°42' E 121°08'3411.4
2017-Mar-23 05:33N 32°00' E 120°34'  
2017-Mar-20 10:31N 31°60' E 120°22'3 2.7
2017-Mar-20 09:33N 32°01' E 120°24'1 1.1
2017-Mar-20 08:33N 32°02' E 120°25'5 5.2
2017-Mar-20 07:33N 32°02' E 120°32'28 5.2
2017-Mar-20 02:15N 31°47' E 120°59'3 4.8
2017-Mar-20 01:33N 31°46' E 121°03'8 8.2
2017-Mar-20 00:33N 31°41' E 121°10'1211.6
2017-Mar-19 23:33N 31°33' E 121°20'1111.2
2017-Mar-19 22:33N 31°26' E 121°30'1110.6
2017-Mar-19 21:33N 31°20' E 121°41'1110.7
2017-Mar-19 20:33N 31°16' E 121°52'1111.0
2017-Mar-19 19:33N 31°14' E 122°05'1010.3
2017-Mar-19 18:33N 31°08' E 122°15'10 7.8
2017-Mar-19 17:20N 31°07' E 122°26'11 0.9
2017-Mar-19 05:30N 31°09' E 122°38'2 1.9
2017-Mar-19 04:15N 31°07' E 122°37'5 7.2
2017-Mar-19 03:32N 31°08' E 122°42'1 1.3
2017-Mar-19 02:33N 31°09' E 122°43'0 0.1
2017-Mar-19 01:34N 31°09' E 122°43'0 0.1
2017-Mar-19 00:34N 31°09' E 122°43'0 0.0
2017-Mar-18 23:33N 31°09' E 122°43'0 0.1
2017-Mar-18 22:32N 31°09' E 122°43'0 0.1
2017-Mar-18 21:30N 31°09' E 122°43'  

Dump ship's entire track history